sensor_id;sensor_type;location;lat;lon;timestamp;P1;durP1;ratioP1;P2;durP2;ratioP2
2874;SDS011;1445;52.600;13.328;2023-02-01T00:02:23;16.50;;;4.90;;
2874;SDS011;1445;52.600;13.328;2023-02-01T00:04:48;16.27;;;3.40;;
2874;SDS011;1445;52.600;13.328;2023-02-01T00:07:14;16.92;;;4.82;;
2874;SDS011;1445;52.600;13.328;2023-02-01T00:09:39;19.35;;;3.28;;
2874;SDS011;1445;52.600;13.328;2023-02-01T00:12:05;22.17;;;3.97;;
2874;SDS011;1445;52.600;13.328;2023-02-01T00:14:30;15.68;;;3.22;;
2874;SDS011;1445;52.600;13.328;2023-02-01T00:17:03;20.05;;;4.07;;
2874;SDS011;1445;52.600;13.328;2023-02-01T00:19:29;24.88;;;3.92;;
2874;SDS011;1445;52.600;13.328;2023-02-01T00:21:55;19.35;;;3.63;;
2874;SDS011;1445;52.600;13.328;2023-02-01T00:24:20;15.80;;;3.38;;
2874;SDS011;1445;52.600;13.328;2023-02-01T00:26:45;16.17;;;3.15;;
2874;SDS011;1445;52.600;13.328;2023-02-01T00:29:15;17.80;;;3.60;;
2874;SDS011;1445;52.600;13.328;2023-02-01T00:31:42;21.35;;;5.07;;
2874;SDS011;1445;52.600;13.328;2023-02-01T00:34:12;14.98;;;3.35;;
2874;SDS011;1445;52.600;13.328;2023-02-01T00:36:40;14.52;;;3.35;;
2874;SDS011;1445;52.600;13.328;2023-02-01T00:39:06;14.07;;;2.90;;
2874;SDS011;1445;52.600;13.328;2023-02-01T00:41:31;10.98;;;3.00;;
2874;SDS011;1445;52.600;13.328;2023-02-01T00:43:57;12.20;;;2.33;;
2874;SDS011;1445;52.600;13.328;2023-02-01T00:46:22;12.55;;;3.08;;
2874;SDS011;1445;52.600;13.328;2023-02-01T00:48:49;11.52;;;2.13;;
2874;SDS011;1445;52.600;13.328;2023-02-01T00:51:16;12.40;;;2.45;;
2874;SDS011;1445;52.600;13.328;2023-02-01T00:53:46;9.60;;;2.15;;
2874;SDS011;1445;52.600;13.328;2023-02-01T00:56:11;12.95;;;2.38;;
2874;SDS011;1445;52.600;13.328;2023-02-01T00:58:37;11.68;;;2.33;;
2874;SDS011;1445;52.600;13.328;2023-02-01T01:01:05;8.05;;;2.13;;
2874;SDS011;1445;52.600;13.328;2023-02-01T01:03:34;9.23;;;2.25;;
2874;SDS011;1445;52.600;13.328;2023-02-01T01:06:03;9.57;;;2.47;;
2874;SDS011;1445;52.600;13.328;2023-02-01T01:08:31;7.20;;;2.10;;
2874;SDS011;1445;52.600;13.328;2023-02-01T01:10:57;8.80;;;1.60;;
2874;SDS011;1445;52.600;13.328;2023-02-01T01:13:23;12.90;;;1.77;;
2874;SDS011;1445;52.600;13.328;2023-02-01T01:15:48;13.45;;;2.08;;
2874;SDS011;1445;52.600;13.328;2023-02-01T01:18:14;11.90;;;2.78;;
2874;SDS011;1445;52.600;13.328;2023-02-01T01:20:40;9.27;;;2.33;;
2874;SDS011;1445;52.600;13.328;2023-02-01T01:23:07;14.90;;;2.78;;
2874;SDS011;1445;52.600;13.328;2023-02-01T01:25:40;11.23;;;2.33;;
2874;SDS011;1445;52.600;13.328;2023-02-01T01:28:05;11.82;;;1.90;;
2874;SDS011;1445;52.600;13.328;2023-02-01T01:30:32;17.88;;;3.47;;
2874;SDS011;1445;52.600;13.328;2023-02-01T01:32:58;14.43;;;2.47;;
2874;SDS011;1445;52.600;13.328;2023-02-01T01:35:24;10.32;;;3.13;;
2874;SDS011;1445;52.600;13.328;2023-02-01T01:37:49;11.23;;;1.95;;
2874;SDS011;1445;52.600;13.328;2023-02-01T01:40:15;13.50;;;3.47;;
2874;SDS011;1445;52.600;13.328;2023-02-01T01:42:41;11.25;;;2.60;;
2874;SDS011;1445;52.600;13.328;2023-02-01T01:45:18;10.15;;;2.72;;
2874;SDS011;1445;52.600;13.328;2023-02-01T01:47:46;13.98;;;2.58;;
2874;SDS011;1445;52.600;13.328;2023-02-01T01:50:16;17.60;;;3.17;;
2874;SDS011;1445;52.600;13.328;2023-02-01T01:52:46;14.35;;;2.75;;
2874;SDS011;1445;52.600;13.328;2023-02-01T01:55:14;12.68;;;2.85;;
2874;SDS011;1445;52.600;13.328;2023-02-01T01:57:44;13.27;;;2.97;;
2874;SDS011;1445;52.600;13.328;2023-02-01T02:00:16;17.55;;;4.38;;
2874;SDS011;1445;52.600;13.328;2023-02-01T02:02:45;17.17;;;2.50;;
2874;SDS011;1445;52.600;13.328;2023-02-01T02:05:12;13.95;;;3.47;;
2874;SDS011;1445;52.600;13.328;2023-02-01T02:07:42;10.85;;;2.72;;
2874;SDS011;1445;52.600;13.328;2023-02-01T02:10:10;15.25;;;4.20;;
2874;SDS011;1445;52.600;13.328;2023-02-01T02:12:38;11.50;;;2.50;;
2874;SDS011;1445;52.600;13.328;2023-02-01T02:15:09;9.80;;;3.22;;
2874;SDS011;1445;52.600;13.328;2023-02-01T02:17:40;17.73;;;3.10;;
2874;SDS011;1445;52.600;13.328;2023-02-01T02:23:18;16.60;;;2.42;;
2874;SDS011;1445;52.600;13.328;2023-02-01T02:51:01;16.83;;;3.17;;
2874;SDS011;1445;52.600;13.328;2023-02-01T02:54:07;12.63;;;2.55;;
2874;SDS011;1445;52.600;13.328;2023-02-01T02:56:55;12.35;;;2.67;;
2874;SDS011;1445;52.600;13.328;2023-02-01T02:59:42;15.50;;;3.28;;
2874;SDS011;1445;52.600;13.328;2023-02-01T03:02:28;14.02;;;2.70;;
2874;SDS011;1445;52.600;13.328;2023-02-01T03:05:13;18.85;;;4.05;;
2874;SDS011;1445;52.600;13.328;2023-02-01T03:15:46;15.80;;;3.38;;
2874;SDS011;1445;52.600;13.328;2023-02-01T03:18:30;18.17;;;2.72;;
2874;SDS011;1445;52.600;13.328;2023-02-01T03:21:02;12.77;;;3.03;;
2874;SDS011;1445;52.600;13.328;2023-02-01T03:23:33;19.10;;;3.47;;
2874;SDS011;1445;52.600;13.328;2023-02-01T03:26:02;15.23;;;2.75;;
2874;SDS011;1445;52.600;13.328;2023-02-01T03:28:31;17.27;;;3.95;;
2874;SDS011;1445;52.600;13.328;2023-02-01T03:30:59;14.02;;;3.25;;
2874;SDS011;1445;52.600;13.328;2023-02-01T03:33:26;15.45;;;3.53;;
2874;SDS011;1445;52.600;13.328;2023-02-01T03:50:06;11.63;;;3.13;;
2874;SDS011;1445;52.600;13.328;2023-02-01T03:55:06;13.40;;;3.60;;
2874;SDS011;1445;52.600;13.328;2023-02-01T03:57:37;14.93;;;3.05;;
2874;SDS011;1445;52.600;13.328;2023-02-01T04:00:07;13.68;;;2.65;;
2874;SDS011;1445;52.600;13.328;2023-02-01T04:02:39;14.75;;;3.45;;
2874;SDS011;1445;52.600;13.328;2023-02-01T04:05:05;14.25;;;3.33;;
2874;SDS011;1445;52.600;13.328;2023-02-01T04:07:30;13.98;;;3.47;;
2874;SDS011;1445;52.600;13.328;2023-02-01T04:09:56;16.73;;;3.10;;
2874;SDS011;1445;52.600;13.328;2023-02-01T04:12:21;12.95;;;2.47;;
2874;SDS011;1445;52.600;13.328;2023-02-01T04:14:47;20.48;;;2.75;;
2874;SDS011;1445;52.600;13.328;2023-02-01T04:17:12;15.82;;;3.90;;
2874;SDS011;1445;52.600;13.328;2023-02-01T04:19:38;12.75;;;3.33;;
2874;SDS011;1445;52.600;13.328;2023-02-01T04:22:03;17.50;;;3.38;;
2874;SDS011;1445;52.600;13.328;2023-02-01T04:24:28;16.88;;;3.20;;
2874;SDS011;1445;52.600;13.328;2023-02-01T04:26:54;11.93;;;3.85;;
2874;SDS011;1445;52.600;13.328;2023-02-01T04:29:20;14.10;;;3.50;;
2874;SDS011;1445;52.600;13.328;2023-02-01T04:31:45;16.63;;;3.22;;
2874;SDS011;1445;52.600;13.328;2023-02-01T04:34:11;14.80;;;3.47;;
2874;SDS011;1445;52.600;13.328;2023-02-01T04:36:36;19.48;;;3.20;;
2874;SDS011;1445;52.600;13.328;2023-02-01T04:39:02;15.68;;;3.97;;
2874;SDS011;1445;52.600;13.328;2023-02-01T04:41:27;14.18;;;3.17;;
2874;SDS011;1445;52.600;13.328;2023-02-01T04:43:54;22.25;;;4.03;;
2874;SDS011;1445;52.600;13.328;2023-02-01T04:46:19;14.07;;;2.50;;
2874;SDS011;1445;52.600;13.328;2023-02-01T04:48:44;24.05;;;3.08;;
2874;SDS011;1445;52.600;13.328;2023-02-01T04:51:10;19.55;;;4.03;;
2874;SDS011;1445;52.600;13.328;2023-02-01T04:53:35;21.00;;;3.30;;
2874;SDS011;1445;52.600;13.328;2023-02-01T04:56:01;13.98;;;3.33;;
2874;SDS011;1445;52.600;13.328;2023-02-01T04:58:27;15.90;;;3.15;;
2874;SDS011;1445;52.600;13.328;2023-02-01T05:00:52;14.68;;;2.53;;
2874;SDS011;1445;52.600;13.328;2023-02-01T05:03:18;19.08;;;4.05;;
2874;SDS011;1445;52.600;13.328;2023-02-01T05:05:43;15.00;;;2.65;;
2874;SDS011;1445;52.600;13.328;2023-02-01T05:08:09;14.73;;;2.70;;
2874;SDS011;1445;52.600;13.328;2023-02-01T05:10:34;15.15;;;2.88;;
2874;SDS011;1445;52.600;13.328;2023-02-01T05:13:00;20.58;;;3.80;;
2874;SDS011;1445;52.600;13.328;2023-02-01T05:15:44;16.42;;;4.10;;
2874;SDS011;1445;52.600;13.328;2023-02-01T05:18:11;13.27;;;3.75;;
2874;SDS011;1445;52.600;13.328;2023-02-01T05:20:37;21.30;;;4.10;;
2874;SDS011;1445;52.600;13.328;2023-02-01T05:23:03;17.85;;;4.05;;
2874;SDS011;1445;52.600;13.328;2023-02-01T05:25:28;15.85;;;3.90;;
2874;SDS011;1445;52.600;13.328;2023-02-01T05:27:54;16.88;;;3.97;;
2874;SDS011;1445;52.600;13.328;2023-02-01T05:30:20;12.63;;;2.90;;
2874;SDS011;1445;52.600;13.328;2023-02-01T05:32:48;15.93;;;3.20;;
2874;SDS011;1445;52.600;13.328;2023-02-01T05:35:14;13.75;;;3.40;;
2874;SDS011;1445;52.600;13.328;2023-02-01T05:37:40;10.80;;;2.92;;
2874;SDS011;1445;52.600;13.328;2023-02-01T05:40:05;16.13;;;3.55;;
2874;SDS011;1445;52.600;13.328;2023-02-01T05:42:31;13.90;;;3.95;;
2874;SDS011;1445;52.600;13.328;2023-02-01T05:44:57;18.95;;;3.38;;
2874;SDS011;1445;52.600;13.328;2023-02-01T05:47:22;13.90;;;3.10;;
2874;SDS011;1445;52.600;13.328;2023-02-01T05:49:48;15.93;;;3.58;;
2874;SDS011;1445;52.600;13.328;2023-02-01T05:52:13;13.45;;;2.78;;
2874;SDS011;1445;52.600;13.328;2023-02-01T05:54:44;16.13;;;3.10;;
2874;SDS011;1445;52.600;13.328;2023-02-01T05:57:09;14.55;;;3.85;;
2874;SDS011;1445;52.600;13.328;2023-02-01T05:59:35;12.93;;;3.05;;
2874;SDS011;1445;52.600;13.328;2023-02-01T06:02:05;19.58;;;4.65;;
2874;SDS011;1445;52.600;13.328;2023-02-01T06:04:31;16.65;;;2.95;;
2874;SDS011;1445;52.600;13.328;2023-02-01T06:06:57;17.30;;;3.67;;
2874;SDS011;1445;52.600;13.328;2023-02-01T06:09:22;19.58;;;3.60;;
2874;SDS011;1445;52.600;13.328;2023-02-01T06:11:48;17.02;;;3.00;;
2874;SDS011;1445;52.600;13.328;2023-02-01T06:14:13;13.00;;;3.17;;
2874;SDS011;1445;52.600;13.328;2023-02-01T06:16:38;17.83;;;3.45;;
2874;SDS011;1445;52.600;13.328;2023-02-01T06:19:04;15.85;;;3.35;;
2874;SDS011;1445;52.600;13.328;2023-02-01T06:21:29;15.07;;;3.90;;
2874;SDS011;1445;52.600;13.328;2023-02-01T06:23:55;20.67;;;4.07;;
2874;SDS011;1445;52.600;13.328;2023-02-01T06:26:22;13.02;;;3.60;;
2874;SDS011;1445;52.600;13.328;2023-02-01T06:28:48;13.68;;;3.10;;
2874;SDS011;1445;52.600;13.328;2023-02-01T06:31:14;13.95;;;3.60;;
2874;SDS011;1445;52.600;13.328;2023-02-01T06:33:39;19.17;;;3.97;;
2874;SDS011;1445;52.600;13.328;2023-02-01T06:36:06;24.80;;;5.18;;
2874;SDS011;1445;52.600;13.328;2023-02-01T06:38:32;18.30;;;3.88;;
2874;SDS011;1445;52.600;13.328;2023-02-01T06:41:00;15.23;;;3.58;;
2874;SDS011;1445;52.600;13.328;2023-02-01T06:43:26;18.52;;;3.35;;
2874;SDS011;1445;52.600;13.328;2023-02-01T06:45:52;20.13;;;3.95;;
2874;SDS011;1445;52.600;13.328;2023-02-01T06:48:18;16.13;;;3.58;;
2874;SDS011;1445;52.600;13.328;2023-02-01T06:50:43;14.75;;;3.10;;
2874;SDS011;1445;52.600;13.328;2023-02-01T06:53:09;20.60;;;3.85;;
2874;SDS011;1445;52.600;13.328;2023-02-01T06:55:35;13.23;;;3.33;;
2874;SDS011;1445;52.600;13.328;2023-02-01T06:58:00;20.63;;;3.80;;
2874;SDS011;1445;52.600;13.328;2023-02-01T07:00:27;16.75;;;3.22;;
2874;SDS011;1445;52.600;13.328;2023-02-01T07:02:53;14.50;;;2.97;;
2874;SDS011;1445;52.600;13.328;2023-02-01T07:05:18;15.57;;;3.97;;
2874;SDS011;1445;52.600;13.328;2023-02-01T07:07:44;26.08;;;4.28;;
2874;SDS011;1445;52.600;13.328;2023-02-01T07:10:09;21.02;;;3.90;;
2874;SDS011;1445;52.600;13.328;2023-02-01T07:12:35;10.55;;;3.25;;
2874;SDS011;1445;52.600;13.328;2023-02-01T07:15:01;9.82;;;3.45;;
2874;SDS011;1445;52.600;13.328;2023-02-01T07:17:27;14.73;;;3.17;;
2874;SDS011;1445;52.600;13.328;2023-02-01T07:19:54;14.32;;;3.15;;
2874;SDS011;1445;52.600;13.328;2023-02-01T07:22:20;12.73;;;3.33;;
2874;SDS011;1445;52.600;13.328;2023-02-01T07:24:45;34.70;;;5.57;;
2874;SDS011;1445;52.600;13.328;2023-02-01T07:27:11;13.45;;;4.10;;
2874;SDS011;1445;52.600;13.328;2023-02-01T07:29:36;19.45;;;3.70;;
2874;SDS011;1445;52.600;13.328;2023-02-01T07:32:02;15.38;;;4.35;;
2874;SDS011;1445;52.600;13.328;2023-02-01T07:34:27;15.70;;;3.50;;
2874;SDS011;1445;52.600;13.328;2023-02-01T07:36:53;15.23;;;3.30;;
2874;SDS011;1445;52.600;13.328;2023-02-01T07:39:19;19.23;;;3.83;;
2874;SDS011;1445;52.600;13.328;2023-02-01T07:41:45;17.48;;;5.03;;
2874;SDS011;1445;52.600;13.328;2023-02-01T07:44:11;12.57;;;3.47;;
2874;SDS011;1445;52.600;13.328;2023-02-01T07:46:36;16.85;;;4.25;;
2874;SDS011;1445;52.600;13.328;2023-02-01T07:49:03;13.43;;;4.40;;
2874;SDS011;1445;52.600;13.328;2023-02-01T07:51:29;15.25;;;3.85;;
2874;SDS011;1445;52.600;13.328;2023-02-01T07:53:54;13.95;;;4.10;;
2874;SDS011;1445;52.600;13.328;2023-02-01T07:56:20;22.25;;;4.47;;
2874;SDS011;1445;52.600;13.328;2023-02-01T07:58:50;13.60;;;4.85;;
2874;SDS011;1445;52.600;13.328;2023-02-01T08:01:22;16.15;;;4.57;;
2874;SDS011;1445;52.600;13.328;2023-02-01T08:03:50;12.77;;;4.45;;
2874;SDS011;1445;52.600;13.328;2023-02-01T08:06:20;17.45;;;5.25;;
2874;SDS011;1445;52.600;13.328;2023-02-01T08:08:48;16.10;;;4.50;;
2874;SDS011;1445;52.600;13.328;2023-02-01T08:11:16;12.98;;;3.88;;
2874;SDS011;1445;52.600;13.328;2023-02-01T08:13:43;18.95;;;4.85;;
2874;SDS011;1445;52.600;13.328;2023-02-01T08:16:10;21.48;;;5.57;;
2874;SDS011;1445;52.600;13.328;2023-02-01T08:18:37;14.77;;;4.78;;
2874;SDS011;1445;52.600;13.328;2023-02-01T08:23:34;14.50;;;4.70;;
2874;SDS011;1445;52.600;13.328;2023-02-01T08:28:44;16.25;;;5.05;;
2874;SDS011;1445;52.600;13.328;2023-02-01T08:31:13;11.82;;;4.78;;
2874;SDS011;1445;52.600;13.328;2023-02-01T08:33:40;21.42;;;6.10;;
2874;SDS011;1445;52.600;13.328;2023-02-01T08:36:07;15.90;;;4.95;;
2874;SDS011;1445;52.600;13.328;2023-02-01T08:38:34;16.13;;;4.72;;
2874;SDS011;1445;52.600;13.328;2023-02-01T08:41:08;14.15;;;4.38;;
2874;SDS011;1445;52.600;13.328;2023-02-01T08:43:36;15.50;;;5.20;;
2874;SDS011;1445;52.600;13.328;2023-02-01T08:46:02;18.27;;;4.43;;
2874;SDS011;1445;52.600;13.328;2023-02-01T08:48:28;10.80;;;4.53;;
2874;SDS011;1445;52.600;13.328;2023-02-01T08:50:54;10.73;;;3.83;;
2874;SDS011;1445;52.600;13.328;2023-02-01T08:53:19;13.52;;;4.32;;
2874;SDS011;1445;52.600;13.328;2023-02-01T08:55:45;10.73;;;3.90;;
2874;SDS011;1445;52.600;13.328;2023-02-01T08:58:11;9.38;;;3.80;;
2874;SDS011;1445;52.600;13.328;2023-02-01T09:00:39;14.10;;;4.03;;
2874;SDS011;1445;52.600;13.328;2023-02-01T09:03:05;14.00;;;4.43;;
2874;SDS011;1445;52.600;13.328;2023-02-01T09:05:30;10.05;;;4.32;;
2874;SDS011;1445;52.600;13.328;2023-02-01T09:07:56;8.60;;;4.18;;
2874;SDS011;1445;52.600;13.328;2023-02-01T09:10:21;9.43;;;4.03;;
2874;SDS011;1445;52.600;13.328;2023-02-01T09:12:47;10.98;;;3.92;;
2874;SDS011;1445;52.600;13.328;2023-02-01T09:15:12;13.65;;;5.45;;
2874;SDS011;1445;52.600;13.328;2023-02-01T09:17:38;9.27;;;3.33;;
2874;SDS011;1445;52.600;13.328;2023-02-01T09:20:04;7.13;;;2.90;;
2874;SDS011;1445;52.600;13.328;2023-02-01T09:22:30;10.05;;;3.10;;
2874;SDS011;1445;52.600;13.328;2023-02-01T09:24:55;10.43;;;3.13;;
2874;SDS011;1445;52.600;13.328;2023-02-01T09:27:21;9.20;;;3.35;;
2874;SDS011;1445;52.600;13.328;2023-02-01T09:29:47;8.70;;;3.70;;
2874;SDS011;1445;52.600;13.328;2023-02-01T09:32:17;9.13;;;3.08;;
2874;SDS011;1445;52.600;13.328;2023-02-01T09:34:43;7.25;;;3.00;;
2874;SDS011;1445;52.600;13.328;2023-02-01T09:37:09;5.70;;;1.90;;
2874;SDS011;1445;52.600;13.328;2023-02-01T09:39:34;5.00;;;2.33;;
2874;SDS011;1445;52.600;13.328;2023-02-01T09:47:22;6.20;;;1.33;;
2874;SDS011;1445;52.600;13.328;2023-02-01T09:55:44;5.07;;;1.33;;
2874;SDS011;1445;52.600;13.328;2023-02-01T09:58:14;2.55;;;1.40;;
2874;SDS011;1445;52.600;13.328;2023-02-01T10:00:50;2.53;;;1.48;;
2874;SDS011;1445;52.600;13.328;2023-02-01T10:03:17;4.55;;;1.60;;
2874;SDS011;1445;52.600;13.328;2023-02-01T10:08:35;3.28;;;1.55;;
2874;SDS011;1445;52.600;13.328;2023-02-01T10:19:39;6.72;;;2.00;;
2874;SDS011;1445;52.600;13.328;2023-02-01T10:25:05;5.07;;;2.47;;
2874;SDS011;1445;52.600;13.328;2023-02-01T10:27:44;8.60;;;2.33;;
2874;SDS011;1445;52.600;13.328;2023-02-01T10:32:52;5.78;;;1.92;;
2874;SDS011;1445;52.600;13.328;2023-02-01T10:35:28;5.07;;;1.85;;
2874;SDS011;1445;52.600;13.328;2023-02-01T10:38:01;5.93;;;1.77;;
2874;SDS011;1445;52.600;13.328;2023-02-01T10:40:27;5.68;;;1.63;;
2874;SDS011;1445;52.600;13.328;2023-02-01T10:42:54;5.68;;;1.88;;
2874;SDS011;1445;52.600;13.328;2023-02-01T10:45:25;6.10;;;1.45;;
2874;SDS011;1445;52.600;13.328;2023-02-01T10:47:53;5.03;;;1.33;;
2874;SDS011;1445;52.600;13.328;2023-02-01T10:50:25;8.43;;;2.28;;
2874;SDS011;1445;52.600;13.328;2023-02-01T10:52:57;4.00;;;1.77;;
2874;SDS011;1445;52.600;13.328;2023-02-01T10:55:46;6.40;;;3.05;;
2874;SDS011;1445;52.600;13.328;2023-02-01T10:58:20;6.38;;;1.90;;
2874;SDS011;1445;52.600;13.328;2023-02-01T11:00:58;6.28;;;2.00;;
2874;SDS011;1445;52.600;13.328;2023-02-01T11:06:47;10.70;;;2.30;;
2874;SDS011;1445;52.600;13.328;2023-02-01T11:08:48;5.57;;;2.00;;
2874;SDS011;1445;52.600;13.328;2023-02-01T11:11:16;7.57;;;1.75;;
2874;SDS011;1445;52.600;13.328;2023-02-01T11:13:42;9.70;;;3.10;;
2874;SDS011;1445;52.600;13.328;2023-02-01T11:16:12;9.07;;;2.33;;
2874;SDS011;1445;52.600;13.328;2023-02-01T11:18:39;8.02;;;2.63;;
2874;SDS011;1445;52.600;13.328;2023-02-01T11:21:05;7.88;;;2.05;;
2874;SDS011;1445;52.600;13.328;2023-02-01T11:23:33;15.88;;;2.20;;
2874;SDS011;1445;52.600;13.328;2023-02-01T11:26:19;10.40;;;2.03;;
2874;SDS011;1445;52.600;13.328;2023-02-01T11:29:35;16.65;;;3.40;;
2874;SDS011;1445;52.600;13.328;2023-02-01T11:31:38;7.30;;;2.20;;
2874;SDS011;1445;52.600;13.328;2023-02-01T11:34:09;7.82;;;1.75;;
2874;SDS011;1445;52.600;13.328;2023-02-01T11:36:42;9.00;;;2.30;;
2874;SDS011;1445;52.600;13.328;2023-02-01T11:39:30;11.13;;;2.40;;
2874;SDS011;1445;52.600;13.328;2023-02-01T11:42:05;10.48;;;2.42;;
2874;SDS011;1445;52.600;13.328;2023-02-01T11:44:44;8.07;;;2.07;;
2874;SDS011;1445;52.600;13.328;2023-02-01T11:47:27;9.32;;;2.80;;
2874;SDS011;1445;52.600;13.328;2023-02-01T11:58:24;6.15;;;1.92;;
2874;SDS011;1445;52.600;13.328;2023-02-01T12:09:08;5.85;;;1.83;;
2874;SDS011;1445;52.600;13.328;2023-02-01T12:16:42;6.13;;;1.75;;
2874;SDS011;1445;52.600;13.328;2023-02-01T12:39:02;6.43;;;2.25;;
2874;SDS011;1445;52.600;13.328;2023-02-01T12:47:38;8.02;;;2.78;;
2874;SDS011;1445;52.600;13.328;2023-02-01T12:50:18;10.18;;;2.35;;
2874;SDS011;1445;52.600;13.328;2023-02-01T12:52:50;6.25;;;2.10;;
2874;SDS011;1445;52.600;13.328;2023-02-01T12:55:20;6.72;;;1.90;;
2874;SDS011;1445;52.600;13.328;2023-02-01T13:01:21;8.77;;;2.42;;
2874;SDS011;1445;52.600;13.328;2023-02-01T13:09:03;5.85;;;1.02;;
2874;SDS011;1445;52.600;13.328;2023-02-01T13:11:44;1.00;;;0.70;;
2874;SDS011;1445;52.600;13.328;2023-02-01T13:14:29;3.28;;;0.85;;
2874;SDS011;1445;52.600;13.328;2023-02-01T13:17:06;6.35;;;1.10;;
2874;SDS011;1445;52.600;13.328;2023-02-01T13:24:59;4.97;;;1.70;;
2874;SDS011;1445;52.600;13.328;2023-02-01T13:27:28;6.22;;;1.90;;
2874;SDS011;1445;52.600;13.328;2023-02-01T13:43:01;5.80;;;1.60;;
2874;SDS011;1445;52.600;13.328;2023-02-01T13:45:32;6.38;;;2.33;;
2874;SDS011;1445;52.600;13.328;2023-02-01T13:48:03;8.32;;;2.15;;
2874;SDS011;1445;52.600;13.328;2023-02-01T13:50:37;8.15;;;2.13;;
2874;SDS011;1445;52.600;13.328;2023-02-01T13:55:38;7.80;;;2.10;;
2874;SDS011;1445;52.600;13.328;2023-02-01T13:58:49;8.88;;;2.00;;
2874;SDS011;1445;52.600;13.328;2023-02-01T14:03:57;11.52;;;2.40;;
2874;SDS011;1445;52.600;13.328;2023-02-01T14:16:39;9.60;;;2.55;;
2874;SDS011;1445;52.600;13.328;2023-02-01T14:24:51;7.82;;;2.13;;
2874;SDS011;1445;52.600;13.328;2023-02-01T14:27:20;11.13;;;2.53;;
2874;SDS011;1445;52.600;13.328;2023-02-01T14:29:50;9.68;;;2.80;;
2874;SDS011;1445;52.600;13.328;2023-02-01T14:32:26;15.45;;;3.55;;
2874;SDS011;1445;52.600;13.328;2023-02-01T14:34:59;9.63;;;4.28;;
2874;SDS011;1445;52.600;13.328;2023-02-01T14:37:33;12.05;;;3.90;;
2874;SDS011;1445;52.600;13.328;2023-02-01T14:40:04;9.35;;;3.15;;
2874;SDS011;1445;52.600;13.328;2023-02-01T14:47:51;12.57;;;4.30;;
2874;SDS011;1445;52.600;13.328;2023-02-01T15:01:25;16.13;;;3.88;;
2874;SDS011;1445;52.600;13.328;2023-02-01T15:04:02;16.52;;;4.13;;
2874;SDS011;1445;52.600;13.328;2023-02-01T15:06:37;12.30;;;4.68;;
2874;SDS011;1445;52.600;13.328;2023-02-01T15:14:20;11.38;;;3.53;;
2874;SDS011;1445;52.600;13.328;2023-02-01T15:16:46;7.32;;;3.00;;
2874;SDS011;1445;52.600;13.328;2023-02-01T15:19:18;9.70;;;2.95;;
2874;SDS011;1445;52.600;13.328;2023-02-01T15:21:49;6.07;;;2.30;;
2874;SDS011;1445;52.600;13.328;2023-02-01T15:24:27;6.55;;;2.25;;
2874;SDS011;1445;52.600;13.328;2023-02-01T15:26:54;3.65;;;1.48;;
2874;SDS011;1445;52.600;13.328;2023-02-01T15:29:22;4.00;;;1.40;;
2874;SDS011;1445;52.600;13.328;2023-02-01T15:31:57;4.03;;;1.55;;
2874;SDS011;1445;52.600;13.328;2023-02-01T15:34:23;4.93;;;1.85;;
2874;SDS011;1445;52.600;13.328;2023-02-01T15:37:13;3.03;;;1.50;;
2874;SDS011;1445;52.600;13.328;2023-02-01T15:42:29;6.22;;;1.75;;
2874;SDS011;1445;52.600;13.328;2023-02-01T15:44:55;4.10;;;1.65;;
2874;SDS011;1445;52.600;13.328;2023-02-01T15:47:26;4.05;;;1.70;;
2874;SDS011;1445;52.600;13.328;2023-02-01T15:49:54;6.10;;;1.50;;
2874;SDS011;1445;52.600;13.328;2023-02-01T15:52:36;2.20;;;1.45;;
2874;SDS011;1445;52.600;13.328;2023-02-01T15:55:05;3.20;;;1.20;;
2874;SDS011;1445;52.600;13.328;2023-02-01T15:57:34;3.15;;;1.30;;
2874;SDS011;1445;52.600;13.328;2023-02-01T16:04:58;1.20;;;0.85;;
2874;SDS011;1445;52.600;13.328;2023-02-01T16:07:27;2.85;;;1.15;;
2874;SDS011;1445;52.600;13.328;2023-02-01T16:09:58;1.50;;;1.20;;
2874;SDS011;1445;52.600;13.328;2023-02-01T16:12:44;1.42;;;0.90;;
2874;SDS011;1445;52.600;13.328;2023-02-01T16:15:12;3.63;;;1.23;;
2874;SDS011;1445;52.600;13.328;2023-02-01T16:17:37;1.85;;;1.20;;
2874;SDS011;1445;52.600;13.328;2023-02-01T16:20:03;1.90;;;0.90;;
2874;SDS011;1445;52.600;13.328;2023-02-01T16:22:29;1.45;;;1.17;;
2874;SDS011;1445;52.600;13.328;2023-02-01T16:24:55;1.33;;;0.85;;
2874;SDS011;1445;52.600;13.328;2023-02-01T16:27:21;1.98;;;0.90;;
2874;SDS011;1445;52.600;13.328;2023-02-01T16:29:47;2.97;;;0.95;;
2874;SDS011;1445;52.600;13.328;2023-02-01T16:32:15;1.80;;;1.10;;
2874;SDS011;1445;52.600;13.328;2023-02-01T16:34:44;2.28;;;1.20;;
2874;SDS011;1445;52.600;13.328;2023-02-01T16:37:15;1.23;;;0.98;;
2874;SDS011;1445;52.600;13.328;2023-02-01T16:39:47;3.00;;;1.33;;
2874;SDS011;1445;52.600;13.328;2023-02-01T16:42:13;1.50;;;1.30;;
2874;SDS011;1445;52.600;13.328;2023-02-01T16:44:39;1.77;;;0.93;;
2874;SDS011;1445;52.600;13.328;2023-02-01T16:47:16;2.08;;;1.00;;
2874;SDS011;1445;52.600;13.328;2023-02-01T16:49:44;2.00;;;1.20;;
2874;SDS011;1445;52.600;13.328;2023-02-01T16:52:14;2.08;;;1.15;;
2874;SDS011;1445;52.600;13.328;2023-02-01T16:54:45;2.13;;;1.20;;
2874;SDS011;1445;52.600;13.328;2023-02-01T16:57:14;1.63;;;1.25;;
2874;SDS011;1445;52.600;13.328;2023-02-01T16:59:41;2.35;;;1.17;;
2874;SDS011;1445;52.600;13.328;2023-02-01T17:02:13;2.60;;;1.00;;
2874;SDS011;1445;52.600;13.328;2023-02-01T17:04:40;1.92;;;1.30;;
2874;SDS011;1445;52.600;13.328;2023-02-01T17:07:05;1.63;;;1.00;;
2874;SDS011;1445;52.600;13.328;2023-02-01T17:09:37;2.55;;;1.50;;
2874;SDS011;1445;52.600;13.328;2023-02-01T17:12:03;2.17;;;1.60;;
2874;SDS011;1445;52.600;13.328;2023-02-01T17:14:30;3.42;;;1.40;;
2874;SDS011;1445;52.600;13.328;2023-02-01T17:16:57;2.35;;;1.30;;
2874;SDS011;1445;52.600;13.328;2023-02-01T17:19:22;3.15;;;2.08;;
2874;SDS011;1445;52.600;13.328;2023-02-01T17:21:49;4.45;;;1.80;;
2874;SDS011;1445;52.600;13.328;2023-02-01T17:24:18;6.03;;;1.60;;
2874;SDS011;1445;52.600;13.328;2023-02-01T17:26:45;5.32;;;1.98;;
2874;SDS011;1445;52.600;13.328;2023-02-01T17:29:11;4.30;;;1.80;;
2874;SDS011;1445;52.600;13.328;2023-02-01T17:31:38;5.40;;;2.08;;
2874;SDS011;1445;52.600;13.328;2023-02-01T17:34:06;6.53;;;1.95;;
2874;SDS011;1445;52.600;13.328;2023-02-01T17:36:31;8.40;;;2.28;;
2874;SDS011;1445;52.600;13.328;2023-02-01T17:38:57;3.70;;;2.28;;
2874;SDS011;1445;52.600;13.328;2023-02-01T17:41:23;6.65;;;2.63;;
2874;SDS011;1445;52.600;13.328;2023-02-01T17:43:48;5.90;;;2.08;;
2874;SDS011;1445;52.600;13.328;2023-02-01T17:46:16;6.13;;;2.50;;
2874;SDS011;1445;52.600;13.328;2023-02-01T17:48:51;6.72;;;1.63;;
2874;SDS011;1445;52.600;13.328;2023-02-01T17:51:18;11.85;;;2.40;;
2874;SDS011;1445;52.600;13.328;2023-02-01T17:53:45;5.30;;;2.35;;
2874;SDS011;1445;52.600;13.328;2023-02-01T17:56:14;3.33;;;1.80;;
2874;SDS011;1445;52.600;13.328;2023-02-01T17:58:41;3.30;;;1.50;;
2874;SDS011;1445;52.600;13.328;2023-02-01T18:01:14;4.50;;;1.80;;
2874;SDS011;1445;52.600;13.328;2023-02-01T18:03:42;5.22;;;1.80;;
2874;SDS011;1445;52.600;13.328;2023-02-01T18:06:15;4.68;;;2.03;;
2874;SDS011;1445;52.600;13.328;2023-02-01T18:08:42;3.60;;;1.65;;
2874;SDS011;1445;52.600;13.328;2023-02-01T18:11:12;2.85;;;1.48;;
2874;SDS011;1445;52.600;13.328;2023-02-01T18:13:39;4.40;;;1.77;;
2874;SDS011;1445;52.600;13.328;2023-02-01T18:16:05;4.55;;;1.58;;
2874;SDS011;1445;52.600;13.328;2023-02-01T18:18:40;5.47;;;1.70;;
2874;SDS011;1445;52.600;13.328;2023-02-01T18:21:05;6.25;;;1.50;;
2874;SDS011;1445;52.600;13.328;2023-02-01T18:23:31;4.55;;;1.60;;
2874;SDS011;1445;52.600;13.328;2023-02-01T18:25:57;6.82;;;1.73;;
2874;SDS011;1445;52.600;13.328;2023-02-01T18:28:22;4.50;;;1.33;;
2874;SDS011;1445;52.600;13.328;2023-02-01T18:30:48;7.30;;;2.00;;
2874;SDS011;1445;52.600;13.328;2023-02-01T18:33:16;5.55;;;1.80;;
2874;SDS011;1445;52.600;13.328;2023-02-01T18:35:42;5.43;;;1.60;;
2874;SDS011;1445;52.600;13.328;2023-02-01T18:38:11;5.47;;;1.67;;